sensor_id;sensor_type;location;lat;lon;timestamp;pressure;altitude;pressure_sealevel;temperature
54746;BMP180;40640;48.130;11.356;2022-11-21T00:04:00;94823.00;;;6.80
54746;BMP180;40640;48.130;11.356;2022-11-21T00:08:03;94812.00;;;6.70
54746;BMP180;40640;48.130;11.356;2022-11-21T00:12:06;94823.00;;;6.70
54746;BMP180;40640;48.130;11.356;2022-11-21T00:16:11;94820.00;;;6.40
54746;BMP180;40640;48.130;11.356;2022-11-21T00:20:16;94820.00;;;6.60
54746;BMP180;40640;48.130;11.356;2022-11-21T00:24:19;94820.00;;;6.60
54746;BMP180;40640;48.130;11.356;2022-11-21T00:28:22;94815.00;;;6.60
54746;BMP180;40640;48.130;11.356;2022-11-21T00:32:25;94822.00;;;7.00
54746;BMP180;40640;48.130;11.356;2022-11-21T00:36:29;94814.00;;;6.80
54746;BMP180;40640;48.130;11.356;2022-11-21T00:40:32;94813.00;;;6.90
54746;BMP180;40640;48.130;11.356;2022-11-21T00:44:34;94799.00;;;6.70
54746;BMP180;40640;48.130;11.356;2022-11-21T00:48:37;94794.00;;;6.70
54746;BMP180;40640;48.130;11.356;2022-11-21T00:52:41;94796.00;;;6.70
54746;BMP180;40640;48.130;11.356;2022-11-21T00:56:44;94790.00;;;6.90
54746;BMP180;40640;48.130;11.356;2022-11-21T01:00:47;94785.00;;;6.50
54746;BMP180;40640;48.130;11.356;2022-11-21T01:04:49;94795.00;;;6.40
54746;BMP180;40640;48.130;11.356;2022-11-21T01:08:53;94795.00;;;6.60
54746;BMP180;40640;48.130;11.356;2022-11-21T01:12:56;94794.00;;;6.60
54746;BMP180;40640;48.130;11.356;2022-11-21T01:16:59;94797.00;;;6.70
54746;BMP180;40640;48.130;11.356;2022-11-21T01:21:03;94796.00;;;6.70
54746;BMP180;40640;48.130;11.356;2022-11-21T01:25:08;94796.00;;;6.70
54746;BMP180;40640;48.130;11.356;2022-11-21T01:29:11;94792.00;;;6.50
54746;BMP180;40640;48.130;11.356;2022-11-21T01:33:14;94785.00;;;6.80
54746;BMP180;40640;48.130;11.356;2022-11-21T01:37:16;94785.00;;;7.00
54746;BMP180;40640;48.130;11.356;2022-11-21T01:41:23;94778.00;;;6.80
54746;BMP180;40640;48.130;11.356;2022-11-21T01:45:52;94789.00;;;6.80
54746;BMP180;40640;48.130;11.356;2022-11-21T01:49:55;94776.00;;;6.70
54746;BMP180;40640;48.130;11.356;2022-11-21T01:54:01;94757.00;;;6.60
54746;BMP180;40640;48.130;11.356;2022-11-21T01:58:05;94763.00;;;6.90
54746;BMP180;40640;48.130;11.356;2022-11-21T02:02:11;94744.00;;;6.70
54746;BMP180;40640;48.130;11.356;2022-11-21T02:06:15;94746.00;;;6.80
54746;BMP180;40640;48.130;11.356;2022-11-21T02:10:18;94744.00;;;6.80
54746;BMP180;40640;48.130;11.356;2022-11-21T02:14:22;94753.00;;;6.80
54746;BMP180;40640;48.130;11.356;2022-11-21T02:18:26;94752.00;;;6.70
54746;BMP180;40640;48.130;11.356;2022-11-21T02:22:33;94746.00;;;6.70
54746;BMP180;40640;48.130;11.356;2022-11-21T02:26:40;94733.00;;;6.80
54746;BMP180;40640;48.130;11.356;2022-11-21T02:30:43;94731.00;;;6.80
54746;BMP180;40640;48.130;11.356;2022-11-21T02:34:46;94727.00;;;6.90
54746;BMP180;40640;48.130;11.356;2022-11-21T02:38:49;94734.00;;;6.70
54746;BMP180;40640;48.130;11.356;2022-11-21T02:42:58;94723.00;;;6.90
54746;BMP180;40640;48.130;11.356;2022-11-21T02:47:02;94721.00;;;6.80
54746;BMP180;40640;48.130;11.356;2022-11-21T02:51:05;94713.00;;;6.60
54746;BMP180;40640;48.130;11.356;2022-11-21T02:55:08;94712.00;;;6.90
54746;BMP180;40640;48.130;11.356;2022-11-21T02:59:13;94705.00;;;6.90
54746;BMP180;40640;48.130;11.356;2022-11-21T03:03:16;94700.00;;;6.80
54746;BMP180;40640;48.130;11.356;2022-11-21T03:07:18;94689.00;;;6.70
54746;BMP180;40640;48.130;11.356;2022-11-21T03:11:21;94678.00;;;6.70
54746;BMP180;40640;48.130;11.356;2022-11-21T03:15:26;94677.00;;;6.80
54746;BMP180;40640;48.130;11.356;2022-11-21T03:19:29;94666.00;;;6.60
54746;BMP180;40640;48.130;11.356;2022-11-21T03:23:32;94669.00;;;6.60
54746;BMP180;40640;48.130;11.356;2022-11-21T03:27:35;94675.00;;;6.40
54746;BMP180;40640;48.130;11.356;2022-11-21T03:31:39;94670.00;;;6.40
54746;BMP180;40640;48.130;11.356;2022-11-21T03:35:42;94659.00;;;6.60
54746;BMP180;40640;48.130;11.356;2022-11-21T03:39:44;94660.00;;;6.50
54746;BMP180;40640;48.130;11.356;2022-11-21T03:43:47;94649.00;;;6.50
54746;BMP180;40640;48.130;11.356;2022-11-21T03:47:51;94648.00;;;6.70
54746;BMP180;40640;48.130;11.356;2022-11-21T03:51:54;94648.00;;;6.40
54746;BMP180;40640;48.130;11.356;2022-11-21T03:55:57;94645.00;;;6.70
54746;BMP180;40640;48.130;11.356;2022-11-21T03:59:59;94647.00;;;6.80
54746;BMP180;40640;48.130;11.356;2022-11-21T04:04:06;94659.00;;;6.70
54746;BMP180;40640;48.130;11.356;2022-11-21T04:08:09;94652.00;;;6.50
54746;BMP180;40640;48.130;11.356;2022-11-21T04:12:12;94647.00;;;6.80
54746;BMP180;40640;48.130;11.356;2022-11-21T04:16:14;94654.00;;;6.80
54746;BMP180;40640;48.130;11.356;2022-11-21T04:20:19;94650.00;;;6.40
54746;BMP180;40640;48.130;11.356;2022-11-21T04:24:21;94652.00;;;6.60
54746;BMP180;40640;48.130;11.356;2022-11-21T04:28:24;94652.00;;;6.50
54746;BMP180;40640;48.130;11.356;2022-11-21T04:32:27;94656.00;;;6.40
54746;BMP180;40640;48.130;11.356;2022-11-21T04:36:31;94658.00;;;6.50
54746;BMP180;40640;48.130;11.356;2022-11-21T04:40:34;94641.00;;;6.50
54746;BMP180;40640;48.130;11.356;2022-11-21T04:44:37;94644.00;;;6.50
54746;BMP180;40640;48.130;11.356;2022-11-21T04:48:40;94610.00;;;6.80
54746;BMP180;40640;48.130;11.356;2022-11-21T04:52:49;94614.00;;;6.40
54746;BMP180;40640;48.130;11.356;2022-11-21T04:56:52;94597.00;;;6.70
54746;BMP180;40640;48.130;11.356;2022-11-21T05:00:55;94595.00;;;6.50
54746;BMP180;40640;48.130;11.356;2022-11-21T05:04:58;94593.00;;;6.40
54746;BMP180;40640;48.130;11.356;2022-11-21T05:09:02;94593.00;;;6.30
54746;BMP180;40640;48.130;11.356;2022-11-21T05:13:05;94587.00;;;6.40
54746;BMP180;40640;48.130;11.356;2022-11-21T05:17:22;94588.00;;;6.60
54746;BMP180;40640;48.130;11.356;2022-11-21T05:21:25;94591.00;;;6.60
54746;BMP180;40640;48.130;11.356;2022-11-21T05:25:29;94595.00;;;6.50
54746;BMP180;40640;48.130;11.356;2022-11-21T05:29:32;94594.00;;;6.20
54746;BMP180;40640;48.130;11.356;2022-11-21T05:33:35;94585.00;;;6.30
54746;BMP180;40640;48.130;11.356;2022-11-21T05:37:37;94595.00;;;6.50
54746;BMP180;40640;48.130;11.356;2022-11-21T05:41:41;94589.00;;;6.30
54746;BMP180;40640;48.130;11.356;2022-11-21T05:45:44;94604.00;;;6.10
54746;BMP180;40640;48.130;11.356;2022-11-21T05:49:47;94591.00;;;6.10
54746;BMP180;40640;48.130;11.356;2022-11-21T05:53:50;94601.00;;;6.10
54746;BMP180;40640;48.130;11.356;2022-11-21T05:57:57;94602.00;;;6.10
54746;BMP180;40640;48.130;11.356;2022-11-21T06:02:00;94601.00;;;6.00
54746;BMP180;40640;48.130;11.356;2022-11-21T06:06:20;94613.00;;;6.00
54746;BMP180;40640;48.130;11.356;2022-11-21T06:10:25;94616.00;;;6.10
54746;BMP180;40640;48.130;11.356;2022-11-21T06:14:29;94615.00;;;6.20
54746;BMP180;40640;48.130;11.356;2022-11-21T06:18:34;94609.00;;;6.10
54746;BMP180;40640;48.130;11.356;2022-11-21T06:22:36;94627.00;;;6.10
54746;BMP180;40640;48.130;11.356;2022-11-21T06:26:39;94620.00;;;6.20
54746;BMP180;40640;48.130;11.356;2022-11-21T06:30:43;94621.00;;;6.20
54746;BMP180;40640;48.130;11.356;2022-11-21T06:34:46;94619.00;;;6.10
54746;BMP180;40640;48.130;11.356;2022-11-21T06:38:49;94614.00;;;6.10
54746;BMP180;40640;48.130;11.356;2022-11-21T06:42:55;94637.00;;;6.20
54746;BMP180;40640;48.130;11.356;2022-11-21T06:46:59;94633.00;;;6.00
54746;BMP180;40640;48.130;11.356;2022-11-21T06:51:06;94646.00;;;6.00
54746;BMP180;40640;48.130;11.356;2022-11-21T06:55:10;94654.00;;;6.00
54746;BMP180;40640;48.130;11.356;2022-11-21T06:59:12;94643.00;;;6.00
54746;BMP180;40640;48.130;11.356;2022-11-21T07:03:17;94650.00;;;6.10
54746;BMP180;40640;48.130;11.356;2022-11-21T07:07:19;94656.00;;;5.90
54746;BMP180;40640;48.130;11.356;2022-11-21T07:11:22;94668.00;;;5.90
54746;BMP180;40640;48.130;11.356;2022-11-21T07:15:26;94657.00;;;6.00
54746;BMP180;40640;48.130;11.356;2022-11-21T07:19:30;94667.00;;;5.80
54746;BMP180;40640;48.130;11.356;2022-11-21T07:23:38;94668.00;;;5.80
54746;BMP180;40640;48.130;11.356;2022-11-21T07:27:40;94673.00;;;6.10
54746;BMP180;40640;48.130;11.356;2022-11-21T07:31:43;94676.00;;;5.90
54746;BMP180;40640;48.130;11.356;2022-11-21T07:35:47;94682.00;;;5.80
54746;BMP180;40640;48.130;11.356;2022-11-21T07:39:50;94674.00;;;5.90
54746;BMP180;40640;48.130;11.356;2022-11-21T07:43:53;94680.00;;;5.80
54746;BMP180;40640;48.130;11.356;2022-11-21T07:47:56;94690.00;;;5.80
54746;BMP180;40640;48.130;11.356;2022-11-21T07:52:01;94699.00;;;5.90
54746;BMP180;40640;48.130;11.356;2022-11-21T07:56:04;94692.00;;;6.00
54746;BMP180;40640;48.130;11.356;2022-11-21T08:00:10;94690.00;;;6.20
54746;BMP180;40640;48.130;11.356;2022-11-21T08:04:13;94698.00;;;6.00
54746;BMP180;40640;48.130;11.356;2022-11-21T08:08:17;94690.00;;;5.90
54746;BMP180;40640;48.130;11.356;2022-11-21T08:12:20;94692.00;;;6.10
54746;BMP180;40640;48.130;11.356;2022-11-21T08:16:23;94698.00;;;6.10
54746;BMP180;40640;48.130;11.356;2022-11-21T08:20:28;94697.00;;;6.30
54746;BMP180;40640;48.130;11.356;2022-11-21T08:24:32;94706.00;;;6.30
54746;BMP180;40640;48.130;11.356;2022-11-21T08:28:35;94711.00;;;6.20
54746;BMP180;40640;48.130;11.356;2022-11-21T08:32:38;94707.00;;;6.50
54746;BMP180;40640;48.130;11.356;2022-11-21T08:36:41;94705.00;;;6.50
54746;BMP180;40640;48.130;11.356;2022-11-21T08:40:45;94704.00;;;6.30
54746;BMP180;40640;48.130;11.356;2022-11-21T08:44:47;94702.00;;;6.30
54746;BMP180;40640;48.130;11.356;2022-11-21T08:48:50;94702.00;;;6.30
54746;BMP180;40640;48.130;11.356;2022-11-21T08:52:58;94701.00;;;6.60
54746;BMP180;40640;48.130;11.356;2022-11-21T08:57:03;94701.00;;;6.60
54746;BMP180;40640;48.130;11.356;2022-11-21T09:01:05;94688.00;;;6.60
54746;BMP180;40640;48.130;11.356;2022-11-21T09:05:12;94695.00;;;6.80
54746;BMP180;40640;48.130;11.356;2022-11-21T09:09:15;94696.00;;;7.00
54746;BMP180;40640;48.130;11.356;2022-11-21T09:13:27;94690.00;;;7.10
54746;BMP180;40640;48.130;11.356;2022-11-21T09:17:29;94689.00;;;7.30
54746;BMP180;40640;48.130;11.356;2022-11-21T09:21:50;94701.00;;;7.40
54746;BMP180;40640;48.130;11.356;2022-11-21T09:25:53;94699.00;;;7.60
54746;BMP180;40640;48.130;11.356;2022-11-21T09:29:58;94694.00;;;8.60
54746;BMP180;40640;48.130;11.356;2022-11-21T09:34:00;94697.00;;;10.50
54746;BMP180;40640;48.130;11.356;2022-11-21T09:38:03;94709.00;;;12.30
54746;BMP180;40640;48.130;11.356;2022-11-21T09:42:27;94718.00;;;13.10
54746;BMP180;40640;48.130;11.356;2022-11-21T09:46:42;94707.00;;;12.30
54746;BMP180;40640;48.130;11.356;2022-11-21T09:50:49;94708.00;;;12.00
54746;BMP180;40640;48.130;11.356;2022-11-21T09:54:58;94711.00;;;11.50
54746;BMP180;40640;48.130;11.356;2022-11-21T09:59:07;94697.00;;;11.20
54746;BMP180;40640;48.130;11.356;2022-11-21T10:03:15;94700.00;;;10.70
54746;BMP180;40640;48.130;11.356;2022-11-21T10:07:25;94689.00;;;10.20
54746;BMP180;40640;48.130;11.356;2022-11-21T10:11:40;94696.00;;;10.20
54746;BMP180;40640;48.130;11.356;2022-11-21T10:16:02;94690.00;;;9.80
54746;BMP180;40640;48.130;11.356;2022-11-21T10:20:20;94669.00;;;9.80
54746;BMP180;40640;48.130;11.356;2022-11-21T10:24:38;94658.00;;;9.70
54746;BMP180;40640;48.130;11.356;2022-11-21T10:28:46;94649.00;;;9.60
54746;BMP180;40640;48.130;11.356;2022-11-21T10:32:54;94644.00;;;11.00
54746;BMP180;40640;48.130;11.356;2022-11-21T10:37:02;94642.00;;;13.70
54746;BMP180;40640;48.130;11.356;2022-11-21T10:41:16;94657.00;;;14.80
54746;BMP180;40640;48.130;11.356;2022-11-21T10:45:19;94652.00;;;16.10
54746;BMP180;40640;48.130;11.356;2022-11-21T10:49:24;94642.00;;;15.90
54746;BMP180;40640;48.130;11.356;2022-11-21T10:53:29;94638.00;;;15.60
54746;BMP180;40640;48.130;11.356;2022-11-21T10:57:50;94639.00;;;14.50
54746;BMP180;40640;48.130;11.356;2022-11-21T11:01:57;94629.00;;;13.60
54746;BMP180;40640;48.130;11.356;2022-11-21T11:06:00;94616.00;;;13.30
54746;BMP180;40640;48.130;11.356;2022-11-21T11:10:17;94619.00;;;12.80
54746;BMP180;40640;48.130;11.356;2022-11-21T11:14:30;94606.00;;;12.20
54746;BMP180;40640;48.130;11.356;2022-11-21T11:18:35;94594.00;;;11.70
54746;BMP180;40640;48.130;11.356;2022-11-21T11:22:39;94595.00;;;11.30
54746;BMP180;40640;48.130;11.356;2022-11-21T11:26:52;94587.00;;;11.10
54746;BMP180;40640;48.130;11.356;2022-11-21T11:30:56;94587.00;;;10.80
54746;BMP180;40640;48.130;11.356;2022-11-21T11:35:05;94568.00;;;10.60
54746;BMP180;40640;48.130;11.356;2022-11-21T11:39:17;94570.00;;;10.40
54746;BMP180;40640;48.130;11.356;2022-11-21T11:43:28;94556.00;;;10.20
54746;BMP180;40640;48.130;11.356;2022-11-21T11:47:54;94571.00;;;10.20
54746;BMP180;40640;48.130;11.356;2022-11-21T11:52:01;94561.00;;;10.30
54746;BMP180;40640;48.130;11.356;2022-11-21T11:56:10;94552.00;;;11.70
54746;BMP180;40640;48.130;11.356;2022-11-21T12:00:24;94560.00;;;12.10
54746;BMP180;40640;48.130;11.356;2022-11-21T12:04:29;94556.00;;;11.70
54746;BMP180;40640;48.130;11.356;2022-11-21T12:08:39;94540.00;;;11.40
54746;BMP180;40640;48.130;11.356;2022-11-21T12:12:47;94541.00;;;11.90
54746;BMP180;40640;48.130;11.356;2022-11-21T12:16:52;94533.00;;;12.50
54746;BMP180;40640;48.130;11.356;2022-11-21T12:20:58;94517.00;;;12.50
54746;BMP180;40640;48.130;11.356;2022-11-21T12:25:09;94502.00;;;13.20
54746;BMP180;40640;48.130;11.356;2022-11-21T12:29:23;94487.00;;;13.60
54746;BMP180;40640;48.130;11.356;2022-11-21T12:33:35;94497.00;;;14.90
54746;BMP180;40640;48.130;11.356;2022-11-21T12:37:48;94486.00;;;15.00
54746;BMP180;40640;48.130;11.356;2022-11-21T12:41:56;94479.00;;;15.40
54746;BMP180;40640;48.130;11.356;2022-11-21T12:46:23;94485.00;;;15.80
54746;BMP180;40640;48.130;11.356;2022-11-21T12:50:31;94469.00;;;15.70
54746;BMP180;40640;48.130;11.356;2022-11-21T12:55:07;94466.00;;;15.50
54746;BMP180;40640;48.130;11.356;2022-11-21T12:59:13;94466.00;;;15.40
54746;BMP180;40640;48.130;11.356;2022-11-21T13:03:27;94453.00;;;15.60
54746;BMP180;40640;48.130;11.356;2022-11-21T13:07:32;94458.00;;;15.60
54746;BMP180;40640;48.130;11.356;2022-11-21T13:11:44;94450.00;;;15.50
54746;BMP180;40640;48.130;11.356;2022-11-21T13:16:06;94438.00;;;15.30
54746;BMP180;40640;48.130;11.356;2022-11-21T13:20:18;94443.00;;;15.10
54746;BMP180;40640;48.130;11.356;2022-11-21T13:24:55;94444.00;;;15.00
54746;BMP180;40640;48.130;11.356;2022-11-21T13:29:06;94440.00;;;14.50
54746;BMP180;40640;48.130;11.356;2022-11-21T13:33:10;94421.00;;;14.20
54746;BMP180;40640;48.130;11.356;2022-11-21T13:37:58;94428.00;;;13.50
54746;BMP180;40640;48.130;11.356;2022-11-21T13:42:21;94403.00;;;13.40
54746;BMP180;40640;48.130;11.356;2022-11-21T13:46:56;94404.00;;;13.70
54746;BMP180;40640;48.130;11.356;2022-11-21T13:51:36;94409.00;;;13.80
54746;BMP180;40640;48.130;11.356;2022-11-21T13:55:54;94394.00;;;13.40
54746;BMP180;40640;48.130;11.356;2022-11-21T14:00:13;94379.00;;;13.20
54746;BMP180;40640;48.130;11.356;2022-11-21T14:04:32;94369.00;;;13.10
54746;BMP180;40640;48.130;11.356;2022-11-21T14:08:40;94372.00;;;13.20
54746;BMP180;40640;48.130;11.356;2022-11-21T14:12:47;94365.00;;;13.30
54746;BMP180;40640;48.130;11.356;2022-11-21T14:16:56;94369.00;;;13.00
54746;BMP180;40640;48.130;11.356;2022-11-21T14:21:03;94366.00;;;12.70
54746;BMP180;40640;48.130;11.356;2022-11-21T14:25:14;94365.00;;;12.60
54746;BMP180;40640;48.130;11.356;2022-11-21T14:29:18;94359.00;;;12.20
54746;BMP180;40640;48.130;11.356;2022-11-21T14:33:26;94347.00;;;12.00
54746;BMP180;40640;48.130;11.356;2022-11-21T14:37:30;94347.00;;;11.90
54746;BMP180;40640;48.130;11.356;2022-11-21T14:41:34;94340.00;;;11.50
54746;BMP180;40640;48.130;11.356;2022-11-21T14:45:47;94330.00;;;11.40
54746;BMP180;40640;48.130;11.356;2022-11-21T14:49:53;94324.00;;;11.00
54746;BMP180;40640;48.130;11.356;2022-11-21T14:53:56;94313.00;;;11.00
54746;BMP180;40640;48.130;11.356;2022-11-21T14:58:00;94306.00;;;10.80
54746;BMP180;40640;48.130;11.356;2022-11-21T15:02:10;94297.00;;;10.50
54746;BMP180;40640;48.130;11.356;2022-11-21T15:06:14;94284.00;;;10.20
54746;BMP180;40640;48.130;11.356;2022-11-21T15:10:20;94281.00;;;10.00
54746;BMP180;40640;48.130;11.356;2022-11-21T15:14:33;94270.00;;;9.80
54746;BMP180;40640;48.130;11.356;2022-11-21T15:18:39;94260.00;;;9.70
54746;BMP180;40640;48.130;11.356;2022-11-21T15:22:46;94250.00;;;9.50
54746;BMP180;40640;48.130;11.356;2022-11-21T15:26:49;94239.00;;;9.40
54746;BMP180;40640;48.130;11.356;2022-11-21T15:31:14;94236.00;;;9.20
54746;BMP180;40640;48.130;11.356;2022-11-21T15:35:27;94232.00;;;9.20
54746;BMP180;40640;48.130;11.356;2022-11-21T15:39:34;94223.00;;;9.00
54746;BMP180;40640;48.130;11.356;2022-11-21T15:43:40;94218.00;;;8.90
54746;BMP180;40640;48.130;11.356;2022-11-21T15:47:43;94216.00;;;8.80
54746;BMP180;40640;48.130;11.356;2022-11-21T15:51:49;94207.00;;;8.60
54746;BMP180;40640;48.130;11.356;2022-11-21T15:56:15;94196.00;;;8.50
54746;BMP180;40640;48.130;11.356;2022-11-21T16:00:23;94194.00;;;8.60
54746;BMP180;40640;48.130;11.356;2022-11-21T16:04:26;94193.00;;;8.50
54746;BMP180;40640;48.130;11.356;2022-11-21T16:08:29;94172.00;;;8.40
54746;BMP180;40640;48.130;11.356;2022-11-21T16:12:33;94172.00;;;8.30
54746;BMP180;40640;48.130;11.356;2022-11-21T16:16:38;94170.00;;;8.30
54746;BMP180;40640;48.130;11.356;2022-11-21T16:20:44;94171.00;;;8.10
54746;BMP180;40640;48.130;11.356;2022-11-21T16:24:46;94159.00;;;8.00
54746;BMP180;40640;48.130;11.356;2022-11-21T16:28:52;94153.00;;;8.00
54746;BMP180;40640;48.130;11.356;2022-11-21T16:32:54;94138.00;;;8.10
54746;BMP180;40640;48.130;11.356;2022-11-21T16:36:57;94125.00;;;7.90
54746;BMP180;40640;48.130;11.356;2022-11-21T16:41:07;94131.00;;;7.90
54746;BMP180;40640;48.130;11.356;2022-11-21T16:45:11;94113.00;;;7.90
54746;BMP180;40640;48.130;11.356;2022-11-21T16:49:14;94105.00;;;7.70
54746;BMP180;40640;48.130;11.356;2022-11-21T16:53:17;94089.00;;;7.70
54746;BMP180;40640;48.130;11.356;2022-11-21T16:57:20;94091.00;;;7.60
54746;BMP180;40640;48.130;11.356;2022-11-21T17:01:25;94087.00;;;7.60
54746;BMP180;40640;48.130;11.356;2022-11-21T17:05:28;94086.00;;;7.60
54746;BMP180;40640;48.130;11.356;2022-11-21T17:09:31;94075.00;;;7.50
54746;BMP180;40640;48.130;11.356;2022-11-21T17:13:34;94076.00;;;7.50
54746;BMP180;40640;48.130;11.356;2022-11-21T17:17:39;94060.00;;;7.40
54746;BMP180;40640;48.130;11.356;2022-11-21T17:21:42;94059.00;;;7.20
54746;BMP180;40640;48.130;11.356;2022-11-21T17:25:44;94033.00;;;7.00
54746;BMP180;40640;48.130;11.356;2022-11-21T17:29:47;94032.00;;;6.90
54746;BMP180;40640;48.130;11.356;2022-11-21T17:33:51;94024.00;;;6.90
54746;BMP180;40640;48.130;11.356;2022-11-21T17:37:55;94029.00;;;6.60
54746;BMP180;40640;48.130;11.356;2022-11-21T17:41:57;94012.00;;;6.60
54746;BMP180;40640;48.130;11.356;2022-11-21T17:46:03;94003.00;;;6.60
54746;BMP180;40640;48.130;11.356;2022-11-21T17:50:12;94004.00;;;6.40
54746;BMP180;40640;48.130;11.356;2022-11-21T17:54:15;93995.00;;;6.30
54746;BMP180;40640;48.130;11.356;2022-11-21T17:58:18;93998.00;;;6.40
54746;BMP180;40640;48.130;11.356;2022-11-21T18:02:20;93990.00;;;6.30
54746;BMP180;40640;48.130;11.356;2022-11-21T18:06:26;93991.00;;;6.30
54746;BMP180;40640;48.130;11.356;2022-11-21T18:10:29;93988.00;;;6.30
54746;BMP180;40640;48.130;11.356;2022-11-21T18:14:48;93965.00;;;6.30
54746;BMP180;40640;48.130;11.356;2022-11-21T18:18:50;93958.00;;;6.30
54746;BMP180;40640;48.130;11.356;2022-11-21T18:22:55;93957.00;;;6.10
54746;BMP180;40640;48.130;11.356;2022-11-21T18:26:57;93956.00;;;6.20
54746;BMP180;40640;48.130;11.356;2022-11-21T18:31:05;93963.00;;;6.10
54746;BMP180;40640;48.130;11.356;2022-11-21T18:35:08;93938.00;;;6.00
54746;BMP180;40640;48.130;11.356;2022-11-21T18:39:12;93931.00;;;5.90
54746;BMP180;40640;48.130;11.356;2022-11-21T18:43:27;93910.00;;;5.80
54746;BMP180;40640;48.130;11.356;2022-11-21T18:47:30;93906.00;;;5.60
54746;BMP180;40640;48.130;11.356;2022-11-21T18:51:34;93887.00;;;5.50
54746;BMP180;40640;48.130;11.356;2022-11-21T18:55:38;93860.00;;;5.40
54746;BMP180;40640;48.130;11.356;2022-11-21T18:59:41;93870.00;;;5.50
54746;BMP180;40640;48.130;11.356;2022-11-21T19:03:45;93854.00;;;5.40
54746;BMP180;40640;48.130;11.356;2022-11-21T19:07:50;93854.00;;;5.30
54746;BMP180;40640;48.130;11.356;2022-11-21T19:11:55;93866.00;;;5.50
54746;BMP180;40640;48.130;11.356;2022-11-21T19:15:59;93858.00;;;5.40
54746;BMP180;40640;48.130;11.356;2022-11-21T19:20:02;93843.00;;;5.40
54746;BMP180;40640;48.130;11.356;2022-11-21T19:24:06;93822.00;;;5.20
54746;BMP180;40640;48.130;11.356;2022-11-21T19:28:14;93797.00;;;5.10
54746;BMP180;40640;48.130;11.356;2022-11-21T19:32:17;93798.00;;;5.30
54746;BMP180;40640;48.130;11.356;2022-11-21T19:36:21;93783.00;;;5.30
54746;BMP180;40640;48.130;11.356;2022-11-21T19:40:25;93766.00;;;5.70
54746;BMP180;40640;48.130;11.356;2022-11-21T19:44:49;93762.00;;;5.20
54746;BMP180;40640;48.130;11.356;2022-11-21T19:48:53;93777.00;;;5.10
54746;BMP180;40640;48.130;11.356;2022-11-21T19:52:56;93790.00;;;5.20
54746;BMP180;40640;48.130;11.356;2022-11-21T19:56:59;93795.00;;;5.60
54746;BMP180;40640;48.130;11.356;2022-11-21T20:01:08;93777.00;;;5.60
54746;BMP180;40640;48.130;11.356;2022-11-21T20:05:13;93764.00;;;5.50
54746;BMP180;40640;48.130;11.356;2022-11-21T20:09:17;93777.00;;;5.70
54746;BMP180;40640;48.130;11.356;2022-11-21T20:13:20;93762.00;;;5.60
54746;BMP180;40640;48.130;11.356;2022-11-21T20:17:24;93745.00;;;5.70
54746;BMP180;40640;48.130;11.356;2022-11-21T20:21:27;93756.00;;;5.70
54746;BMP180;40640;48.130;11.356;2022-11-21T20:25:30;93750.00;;;5.70
54746;BMP180;40640;48.130;11.356;2022-11-21T20:29:33;93750.00;;;5.80
54746;BMP180;40640;48.130;11.356;2022-11-21T20:33:41;93745.00;;;5.80
54746;BMP180;40640;48.130;11.356;2022-11-21T20:37:45;93732.00;;;5.20
54746;BMP180;40640;48.130;11.356;2022-11-21T20:41:47;93733.00;;;5.30
54746;BMP180;40640;48.130;11.356;2022-11-21T20:45:50;93736.00;;;5.30
54746;BMP180;40640;48.130;11.356;2022-11-21T20:50:15;93734.00;;;5.40
54746;BMP180;40640;48.130;11.356;2022-11-21T20:54:39;93719.00;;;5.30
54746;BMP180;40640;48.130;11.356;2022-11-21T20:58:43;93726.00;;;5.50
54746;BMP180;40640;48.130;11.356;2022-11-21T21:02:46;93715.00;;;5.40
54746;BMP180;40640;48.130;11.356;2022-11-21T21:06:50;93712.00;;;5.40
54746;BMP180;40640;48.130;11.356;2022-11-21T21:11:00;93704.00;;;5.30
54746;BMP180;40640;48.130;11.356;2022-11-21T21:15:08;93705.00;;;5.30
54746;BMP180;40640;48.130;11.356;2022-11-21T21:19:10;93701.00;;;5.50
54746;BMP180;40640;48.130;11.356;2022-11-21T21:23:15;93700.00;;;5.40
54746;BMP180;40640;48.130;11.356;2022-11-21T21:27:18;93701.00;;;5.40
54746;BMP180;40640;48.130;11.356;2022-11-21T21:31:21;93695.00;;;5.40
54746;BMP180;40640;48.130;11.356;2022-11-21T21:35:24;93697.00;;;5.40
54746;BMP180;40640;48.130;11.356;2022-11-21T21:39:28;93711.00;;;5.70
54746;BMP180;40640;48.130;11.356;2022-11-21T21:43:32;93708.00;;;5.80
54746;BMP180;40640;48.130;11.356;2022-11-21T21:47:37;93721.00;;;6.00
54746;BMP180;40640;48.130;11.356;2022-11-21T21:51:40;93729.00;;;5.80
54746;BMP180;40640;48.130;11.356;2022-11-21T21:55:45;93722.00;;;5.80
54746;BMP180;40640;48.130;11.356;2022-11-21T21:59:47;93705.00;;;5.70
54746;BMP180;40640;48.130;11.356;2022-11-21T22:03:52;93695.00;;;5.80
54746;BMP180;40640;48.130;11.356;2022-11-21T22:07:55;93688.00;;;5.60
54746;BMP180;40640;48.130;11.356;2022-11-21T22:12:00;93680.00;;;5.50
54746;BMP180;40640;48.130;11.356;2022-11-21T22:16:05;93686.00;;;5.80
54746;BMP180;40640;48.130;11.356;2022-11-21T22:20:08;93687.00;;;5.80
54746;BMP180;40640;48.130;11.356;2022-11-21T22:24:13;93677.00;;;5.80
54746;BMP180;40640;48.130;11.356;2022-11-21T22:28:32;93679.00;;;5.80
54746;BMP180;40640;48.130;11.356;2022-11-21T22:32:35;93702.00;;;6.10
54746;BMP180;40640;48.130;11.356;2022-11-21T22:36:38;93761.00;;;6.20
54746;BMP180;40640;48.130;11.356;2022-11-21T22:40:42;93745.00;;;6.00
54746;BMP180;40640;48.130;11.356;2022-11-21T22:44:46;93750.00;;;6.00
54746;BMP180;40640;48.130;11.356;2022-11-21T22:48:49;93729.00;;;5.90
54746;BMP180;40640;48.130;11.356;2022-11-21T22:52:51;93722.00;;;5.90
54746;BMP180;40640;48.130;11.356;2022-11-21T22:56:54;93713.00;;;5.80
54746;BMP180;40640;48.130;11.356;2022-11-21T23:01:04;93720.00;;;5.90
54746;BMP180;40640;48.130;11.356;2022-11-21T23:05:07;93713.00;;;5.90
54746;BMP180;40640;48.130;11.356;2022-11-21T23:09:10;93720.00;;;6.10
54746;BMP180;40640;48.130;11.356;2022-11-21T23:13:13;93724.00;;;5.90
54746;BMP180;40640;48.130;11.356;2022-11-21T23:17:17;93724.00;;;6.00
54746;BMP180;40640;48.130;11.356;2022-11-21T23:21:21;93694.00;;;5.90
54746;BMP180;40640;48.130;11.356;2022-11-21T23:25:23;93709.00;;;6.00
54746;BMP180;40640;48.130;11.356;2022-11-21T23:29:26;93705.00;;;5.90
54746;BMP180;40640;48.130;11.356;2022-11-21T23:33:31;93697.00;;;5.90
54746;BMP180;40640;48.130;11.356;2022-11-21T23:37:34;93696.00;;;6.00